createdAt,value
2018-05-14T00:02:13.277Z,100.00
2018-05-14T00:04:46.957Z,100.00
2018-05-14T00:07:21.096Z,100.00
2018-05-14T00:09:53.749Z,100.00
2018-05-14T00:12:24.541Z,100.00
2018-05-14T00:14:54.609Z,100.00
2018-05-14T00:17:28.213Z,100.00
2018-05-14T00:20:02.259Z,100.00
2018-05-14T00:22:32.081Z,100.00
2018-05-14T00:25:04.452Z,100.00
2018-05-14T00:27:36.894Z,100.00
2018-05-14T00:30:08.563Z,100.00
2018-05-14T00:32:40.749Z,100.00
2018-05-14T00:35:11.064Z,100.00
2018-05-14T00:37:43.034Z,100.00
2018-05-14T00:40:16.520Z,99.85
2018-05-14T00:42:47.791Z,99.49
2018-05-14T00:45:17.896Z,99.85
2018-05-14T00:47:48.402Z,98.46
2018-05-14T00:50:18.769Z,100.00
2018-05-14T00:52:48.437Z,100.00
2018-05-14T00:55:18.790Z,99.88
2018-05-14T00:57:49.728Z,99.18
2018-05-14T01:00:20.042Z,98.93
2018-05-14T01:02:49.721Z,99.32
2018-05-14T01:05:19.253Z,99.00
2018-05-14T01:07:49.350Z,99.08
2018-05-14T01:10:20.013Z,98.08
2018-05-14T01:12:51.275Z,97.75
2018-05-14T01:15:21.957Z,97.32
2018-05-14T01:17:53.128Z,95.40
2018-05-14T01:20:22.916Z,93.99
2018-05-14T01:22:54.104Z,91.51
2018-05-14T01:25:24.731Z,94.12
2018-05-14T01:27:54.556Z,93.74
2018-05-14T01:30:29.620Z,94.78
2018-05-14T01:32:59.517Z,94.74
2018-05-14T01:35:29.205Z,95.20
2018-05-14T01:37:58.911Z,95.72
2018-05-14T01:40:28.673Z,96.02
2018-05-14T01:42:59.761Z,95.80
2018-05-14T01:45:30.259Z,95.95
2018-05-14T01:48:00.817Z,95.97
2018-05-14T01:50:31.269Z,96.66
2018-05-14T01:53:00.966Z,98.14
2018-05-14T01:55:30.983Z,97.46
2018-05-14T01:58:01.444Z,98.01
2018-05-14T02:00:31.499Z,98.72
2018-05-14T02:03:02.011Z,98.35
2018-05-14T02:05:31.671Z,98.44
2018-05-14T02:08:02.195Z,98.98
2018-05-14T02:10:31.806Z,99.02
2018-05-14T02:13:03.265Z,98.90
2018-05-14T02:15:32.982Z,98.63
2018-05-14T02:18:07.147Z,99.47
2018-05-14T02:20:37.900Z,99.79
2018-05-14T02:23:07.542Z,100.00
2018-05-14T02:25:37.391Z,100.00
2018-05-14T02:28:08.901Z,100.00
2018-05-14T02:30:41.876Z,100.00
2018-05-14T02:33:11.830Z,100.00
2018-05-14T02:35:42.998Z,100.00
2018-05-14T02:38:13.061Z,100.00
2018-05-14T02:40:43.090Z,100.00
2018-05-14T02:43:14.933Z,100.00
2018-05-14T02:45:45.114Z,100.00
2018-05-14T02:48:19.247Z,100.00
2018-05-14T02:50:49.094Z,100.00
2018-05-14T02:53:19.474Z,100.00
2018-05-14T02:55:49.345Z,100.00
2018-05-14T02:58:20.812Z,100.00
2018-05-14T03:00:54.759Z,100.00
2018-05-14T03:03:25.465Z,100.00
2018-05-14T03:05:55.862Z,100.00
2018-05-14T03:08:25.572Z,100.00
2018-05-14T03:10:55.198Z,100.00
2018-05-14T03:13:25.442Z,100.00
2018-05-14T03:15:55.195Z,100.00
2018-05-14T03:18:26.299Z,100.00
2018-05-14T03:20:55.921Z,100.00
2018-05-14T03:23:25.614Z,100.00
2018-05-14T03:25:55.503Z,100.00
2018-05-14T03:28:25.230Z,100.00
2018-05-14T03:30:55.686Z,100.00
2018-05-14T03:33:25.450Z,100.00
2018-05-14T03:35:55.017Z,99.54
2018-05-14T03:38:24.770Z,99.17
2018-05-14T03:40:55.600Z,99.13
2018-05-14T03:43:25.238Z,99.14
2018-05-14T03:45:55.297Z,99.24
2018-05-14T03:48:25.565Z,99.10
2018-05-14T03:50:55.208Z,98.94
2018-05-14T03:53:25.585Z,99.42
2018-05-14T03:55:55.189Z,99.53
2018-05-14T03:58:44.764Z,99.79
2018-05-14T04:01:15.821Z,99.58
2018-05-14T04:04:03.466Z,99.75
2018-05-14T04:06:38.219Z,100.00
2018-05-14T04:09:08.642Z,100.00
2018-05-14T04:11:47.161Z,100.00
2018-05-14T04:14:16.968Z,100.00
2018-05-14T04:16:46.813Z,99.46
2018-05-14T04:19:17.268Z,98.26
2018-05-14T04:21:46.812Z,98.17
2018-05-14T04:24:18.141Z,97.03
2018-05-14T04:26:48.007Z,96.02
2018-05-14T04:29:18.075Z,95.13
2018-05-14T04:31:47.621Z,94.86
2018-05-14T04:34:17.343Z,95.39
2018-05-14T04:36:47.891Z,94.84
2018-05-14T04:39:17.591Z,95.08
2018-05-14T04:41:47.336Z,94.54
2018-05-14T04:44:16.927Z,93.76
2018-05-14T04:46:46.525Z,94.40
2018-05-14T04:49:16.163Z,93.87
2018-05-14T04:51:45.967Z,93.81
2018-05-14T04:54:15.690Z,93.92
2018-05-14T04:56:45.488Z,92.98
2018-05-14T04:59:15.307Z,93.17
2018-05-14T05:01:45.041Z,92.77
2018-05-14T05:04:14.690Z,92.37
2018-05-14T05:06:44.321Z,90.17
2018-05-14T05:09:13.894Z,90.19
2018-05-14T05:11:43.665Z,89.93
2018-05-14T05:14:13.137Z,91.45
2018-05-14T05:16:42.831Z,90.48
2018-05-14T05:19:13.106Z,89.24
2018-05-14T05:21:44.421Z,89.98
2018-05-14T05:24:15.072Z,89.52
2018-05-14T05:26:44.748Z,88.50
2018-05-14T05:29:14.516Z,88.93
2018-05-14T05:31:44.139Z,85.69
2018-05-14T05:34:15.468Z,85.68
2018-05-14T05:36:45.425Z,81.77
2018-05-14T05:39:15.097Z,77.21
2018-05-14T05:41:44.831Z,79.67
2018-05-14T05:44:16.151Z,75.80
2018-05-14T05:46:45.812Z,76.76
2018-05-14T05:49:16.311Z,73.25
2018-05-14T05:51:48.153Z,71.20
2018-05-14T05:54:18.535Z,69.75
2018-05-14T05:56:48.236Z,68.48
2018-05-14T05:59:18.032Z,64.81
2018-05-14T06:01:47.907Z,62.90
2018-05-14T06:04:17.600Z,62.86
2018-05-14T06:06:47.299Z,61.25
2018-05-14T06:09:18.141Z,56.83
2018-05-14T06:11:47.814Z,57.50
2018-05-14T06:14:18.271Z,53.80
2018-05-14T06:16:47.795Z,55.38
2018-05-14T06:19:17.380Z,57.05
2018-05-14T06:21:47.192Z,51.57
2018-05-14T06:24:16.759Z,53.15
2018-05-14T06:26:46.626Z,52.89
2018-05-14T06:29:16.234Z,54.62
2018-05-14T06:31:45.745Z,57.45
2018-05-14T06:34:15.891Z,54.86
2018-05-14T06:36:45.552Z,54.18
2018-05-14T06:39:16.926Z,55.07
2018-05-14T06:41:46.853Z,57.93
2018-05-14T06:44:16.610Z,55.08
2018-05-14T06:46:46.306Z,55.26
2018-05-14T06:49:17.048Z,57.79
2018-05-14T06:51:46.923Z,58.86
2018-05-14T06:54:16.810Z,59.90
2018-05-14T06:56:46.559Z,57.08
2018-05-14T06:59:16.749Z,58.65
2018-05-14T07:01:47.482Z,62.08
2018-05-14T07:04:17.735Z,63.24
2018-05-14T07:06:47.669Z,67.03
2018-05-14T07:09:18.171Z,64.67
2018-05-14T07:11:48.073Z,63.23
2018-05-14T07:14:18.579Z,66.26
2018-05-14T07:16:54.745Z,65.80
2018-05-14T07:19:26.466Z,63.67
2018-05-14T07:21:56.280Z,66.06
2018-05-14T07:24:27.116Z,65.97
2018-05-14T07:26:56.954Z,66.08
2018-05-14T07:29:26.702Z,59.65
2018-05-14T07:31:56.754Z,55.55
2018-05-14T07:34:26.725Z,50.80
2018-05-14T07:36:57.661Z,45.88
2018-05-14T07:39:28.520Z,44.69
2018-05-14T07:41:59.680Z,42.09
2018-05-14T07:44:29.609Z,42.18
2018-05-14T07:47:00.258Z,41.98
2018-05-14T07:49:30.035Z,44.70
2018-05-14T07:52:00.009Z,43.18
2018-05-14T07:54:29.664Z,42.96
2018-05-14T07:57:01.064Z,45.88
2018-05-14T07:59:32.162Z,46.29
2018-05-14T08:02:03.208Z,44.03
2018-05-14T08:04:33.037Z,42.80
2018-05-14T08:07:04.433Z,45.13
2018-05-14T08:09:37.566Z,44.15
2018-05-14T08:12:08.189Z,42.04
2018-05-14T08:14:39.820Z,40.75
2018-05-14T08:17:09.972Z,37.59
2018-05-14T08:19:41.440Z,36.96
2018-05-14T08:22:11.432Z,38.97
2018-05-14T08:24:41.410Z,41.83
2018-05-14T08:27:12.504Z,45.12
2018-05-14T08:29:43.744Z,46.22
2018-05-14T08:32:13.799Z,45.59
2018-05-14T08:34:43.631Z,45.25
2018-05-14T08:37:13.749Z,49.47
2018-05-14T08:39:43.512Z,46.46
2018-05-14T08:42:13.929Z,46.14
2018-05-14T08:44:43.847Z,45.58
2018-05-14T08:47:14.541Z,44.63
2018-05-14T08:49:44.650Z,44.59
2018-05-14T08:52:15.250Z,40.85
2018-05-14T08:54:45.864Z,40.39
2018-05-14T08:57:15.792Z,41.12
2018-05-14T08:59:47.976Z,38.14
2018-05-14T09:02:18.796Z,37.75
2018-05-14T09:04:50.789Z,40.45
2018-05-14T09:07:20.678Z,40.00
2018-05-14T09:09:51.075Z,37.56
2018-05-14T09:12:20.803Z,38.98
2018-05-14T09:14:51.036Z,38.19
2018-05-14T09:17:21.782Z,39.70
2018-05-14T09:19:52.227Z,39.55
2018-05-14T09:22:22.444Z,41.28
2018-05-14T09:24:55.073Z,43.45
2018-05-14T09:27:24.988Z,44.95
2018-05-14T09:29:54.919Z,47.17
2018-05-14T09:32:25.707Z,48.39
2018-05-14T09:34:57.009Z,50.16
2018-05-14T09:37:27.639Z,50.68
2018-05-14T09:39:58.183Z,55.45
2018-05-14T09:42:34.494Z,60.44
2018-05-14T09:45:04.776Z,58.76
2018-05-14T09:54:46.564Z,69.87
2018-05-14T09:57:37.127Z,69.15
2018-05-14T10:00:07.847Z,73.97
2018-05-14T10:02:38.674Z,69.31
2018-05-14T10:05:09.477Z,74.13
2018-05-14T10:07:39.258Z,76.25
2018-05-14T10:10:09.176Z,77.77
2018-05-14T10:12:40.301Z,79.04
2018-05-14T10:15:14.633Z,76.01
2018-05-14T10:17:45.137Z,76.31
2018-05-14T10:20:18.483Z,78.31
2018-05-14T10:22:50.611Z,76.80
2018-05-14T10:25:20.769Z,70.55
2018-05-14T10:27:51.958Z,64.61
2018-05-14T10:30:22.268Z,67.66
2018-05-14T10:32:53.658Z,66.14
2018-05-14T10:35:23.550Z,61.96
2018-05-14T10:37:54.870Z,56.23
2018-05-14T10:40:24.894Z,54.59
2018-05-14T10:43:01.058Z,53.83
2018-05-14T10:45:31.883Z,51.30
2018-05-14T10:48:02.009Z,47.69
2018-05-14T10:50:32.674Z,49.66
2018-05-14T10:53:02.513Z,47.56
2018-05-14T10:55:32.989Z,49.21
2018-05-14T10:58:04.378Z,51.54
2018-05-14T11:00:34.420Z,53.85
2018-05-14T11:03:04.573Z,56.74
2018-05-14T11:05:34.274Z,55.03
2018-05-14T11:08:03.951Z,54.30
2018-05-14T11:10:34.148Z,55.18
2018-05-14T11:13:04.136Z,58.30
2018-05-14T11:15:34.171Z,58.24
2018-05-14T11:18:04.088Z,58.71
2018-05-14T11:20:33.956Z,57.05
2018-05-14T11:23:03.945Z,54.46
2018-05-14T11:25:34.051Z,54.10
2018-05-14T11:28:03.981Z,54.87
2018-05-14T11:30:35.587Z,54.89
2018-05-14T11:33:05.661Z,51.41
2018-05-14T11:35:36.849Z,48.16
2018-05-14T11:38:08.854Z,48.40
2018-05-14T11:40:38.796Z,47.67
2018-05-14T11:43:08.886Z,47.28
2018-05-14T11:45:39.978Z,45.56
2018-05-14T11:48:10.580Z,48.16
2018-05-14T11:50:40.566Z,46.68
2018-05-14T11:53:11.953Z,48.77
2018-05-14T11:55:42.567Z,48.24
2018-05-14T11:58:13.404Z,51.19
2018-05-14T12:00:45.054Z,50.50
2018-05-14T12:03:15.732Z,51.25
2018-05-14T12:05:45.618Z,51.00
2018-05-14T12:08:16.181Z,48.44
2018-05-14T12:10:45.963Z,49.43
2018-05-14T12:13:17.062Z,52.76
2018-05-14T12:15:48.027Z,49.04
2018-05-14T12:18:17.756Z,47.64
2018-05-14T12:20:48.982Z,46.56
2018-05-14T12:23:19.578Z,45.61
2018-05-14T12:25:50.170Z,46.16
2018-05-14T12:28:20.083Z,49.13
2018-05-14T12:30:51.451Z,48.73
2018-05-14T12:33:21.318Z,50.72
2018-05-14T12:35:51.648Z,46.56
2018-05-14T12:38:21.518Z,50.06
2018-05-14T12:40:51.378Z,49.51
2018-05-14T12:43:22.017Z,52.65
2018-05-14T12:45:53.755Z,51.37
2018-05-14T12:48:25.641Z,50.01
2018-05-14T12:50:56.700Z,50.73
2018-05-14T12:53:26.536Z,52.97
2018-05-14T12:55:56.469Z,50.88
2018-05-14T12:58:26.327Z,48.11
2018-05-14T13:00:57.257Z,50.72
2018-05-14T13:03:31.744Z,52.35
2018-05-14T13:06:03.238Z,51.38
2018-05-14T13:08:34.008Z,53.16
2018-05-14T13:11:04.144Z,51.96
2018-05-14T13:13:34.795Z,51.16
2018-05-14T13:16:05.979Z,51.54
2018-05-14T13:18:36.587Z,50.18
2018-05-14T13:21:06.629Z,50.53
2018-05-14T13:23:37.197Z,52.07
2018-05-14T13:26:07.817Z,51.65
2018-05-14T13:28:37.751Z,51.45
2018-05-14T13:31:07.922Z,51.07
2018-05-14T13:33:38.409Z,53.12
2018-05-14T13:36:09.299Z,50.91
2018-05-14T13:38:50.012Z,51.77
2018-05-14T13:41:19.829Z,53.10
2018-05-14T13:43:51.020Z,53.72
2018-05-14T13:46:21.596Z,53.40
2018-05-14T13:48:51.439Z,51.36
2018-05-14T13:51:22.876Z,51.00
2018-05-14T13:53:52.707Z,50.96
2018-05-14T13:56:22.847Z,52.49
2018-05-14T13:58:52.602Z,52.08
2018-05-14T14:01:23.234Z,51.95
2018-05-14T14:03:53.522Z,52.30
2018-05-14T14:06:24.966Z,52.92
2018-05-14T14:08:55.668Z,52.11
2018-05-14T14:11:40.688Z,52.16
2018-05-14T14:14:11.302Z,52.68
2018-05-14T14:16:43.169Z,53.68
2018-05-14T14:19:13.787Z,52.41
2018-05-14T14:21:45.188Z,52.70
2018-05-14T14:24:15.006Z,52.58
2018-05-14T14:26:44.753Z,52.28
2018-05-14T14:29:15.402Z,50.91
2018-05-14T14:31:49.168Z,53.60
2018-05-14T14:34:18.910Z,53.93
2018-05-14T14:36:49.445Z,52.02
2018-05-14T14:39:19.426Z,53.02
2018-05-14T14:41:49.459Z,52.90
2018-05-14T14:44:19.346Z,53.55
2018-05-14T14:46:49.206Z,52.94
2018-05-14T14:49:19.024Z,53.79
2018-05-14T14:51:49.623Z,55.00
2018-05-14T14:54:19.388Z,54.23
2018-05-14T14:56:49.127Z,53.03
2018-05-14T14:59:19.600Z,52.50
2018-05-14T15:01:54.120Z,50.69
2018-05-14T15:04:23.808Z,49.23
2018-05-14T15:06:53.333Z,51.12
2018-05-14T15:09:22.978Z,51.00
2018-05-14T15:11:52.648Z,52.18
2018-05-14T15:17:00.281Z,55.82
2018-05-14T15:19:29.842Z,56.27
2018-05-14T15:22:00.214Z,56.05
2018-05-14T15:24:30.019Z,57.22
2018-05-14T15:26:59.608Z,56.75
2018-05-14T15:29:29.211Z,57.29
2018-05-14T15:31:58.953Z,57.36
2018-05-14T15:34:28.576Z,55.52
2018-05-14T15:36:58.148Z,58.05
2018-05-14T15:39:27.953Z,59.28
2018-05-14T15:41:57.614Z,59.85
2018-05-14T15:44:27.639Z,59.68
2018-05-14T15:46:57.663Z,59.47
2018-05-14T15:49:27.415Z,60.20
2018-05-14T15:51:58.691Z,59.61
2018-05-14T15:54:28.514Z,59.75
2018-05-14T15:56:58.093Z,61.01
2018-05-14T15:59:27.695Z,61.17
2018-05-14T16:01:58.178Z,61.54
2018-05-14T16:04:27.847Z,61.74
2018-05-14T16:06:57.843Z,63.88
2018-05-14T16:09:27.409Z,63.16
2018-05-14T16:11:56.908Z,64.00
2018-05-14T16:14:26.395Z,64.29
2018-05-14T16:16:56.006Z,64.44
2018-05-14T16:19:25.918Z,62.87
2018-05-14T16:21:55.537Z,62.32
2018-05-14T16:24:25.272Z,62.17
2018-05-14T16:26:56.987Z,61.77
2018-05-14T16:29:26.577Z,62.01
2018-05-14T16:31:57.950Z,61.43
2018-05-14T16:34:28.340Z,62.68
2018-05-14T16:37:01.477Z,61.79
2018-05-14T16:39:32.566Z,63.22
2018-05-14T16:42:02.872Z,63.86
2018-05-14T16:44:34.165Z,63.99
2018-05-14T16:47:05.076Z,64.78
2018-05-14T16:49:35.882Z,65.48
2018-05-14T16:52:06.627Z,66.33
2018-05-14T16:54:38.750Z,63.99
2018-05-14T16:57:09.836Z,64.33
2018-05-14T16:59:40.168Z,62.20
2018-05-14T17:02:11.852Z,60.65
2018-05-14T17:04:42.505Z,62.09
2018-05-14T17:07:14.183Z,63.12
2018-05-14T17:09:45.165Z,63.96
2018-05-14T17:12:17.487Z,64.68
2018-05-14T17:14:48.724Z,64.56
2018-05-14T17:17:18.709Z,65.20
2018-05-14T17:19:48.871Z,66.19
2018-05-14T17:22:19.400Z,66.73
2018-05-14T17:24:51.368Z,66.43
2018-05-14T17:27:22.640Z,66.26
2018-05-14T17:29:54.925Z,66.13
2018-05-14T17:32:25.904Z,65.84
2018-05-14T17:34:56.091Z,65.78
2018-05-14T17:37:27.205Z,65.45
2018-05-14T17:39:59.480Z,65.62
2018-05-14T17:42:30.209Z,64.58
2018-05-14T17:45:03.900Z,63.90
2018-05-14T17:47:35.039Z,65.18
2018-05-14T17:50:16.956Z,64.89
2018-05-14T17:52:50.417Z,64.45
2018-05-14T17:55:34.426Z,64.91
2018-05-14T17:58:26.314Z,65.16
2018-05-14T18:01:03.007Z,65.53
2018-05-14T18:03:33.924Z,65.81
2018-05-14T18:06:05.242Z,66.19
2018-05-14T18:08:35.973Z,65.11
2018-05-14T18:11:06.250Z,65.16
2018-05-14T18:13:36.422Z,65.19
2018-05-14T18:16:06.751Z,64.91
2018-05-14T18:18:38.795Z,65.57
2018-05-14T18:21:12.993Z,65.74
2018-05-14T18:23:48.234Z,67.19
2018-05-14T18:26:19.297Z,67.60
2018-05-14T18:28:50.493Z,67.48
2018-05-14T18:31:28.358Z,67.10
2018-05-14T18:34:04.257Z,67.28
2018-05-14T18:36:34.060Z,68.17
2018-05-14T18:39:03.750Z,68.71
2018-05-14T18:41:33.365Z,68.75
2018-05-14T18:44:03.509Z,68.91
2018-05-14T18:46:33.292Z,69.64
2018-05-14T18:49:03.964Z,68.62
2018-05-14T18:51:33.487Z,69.60
2018-05-14T18:54:03.176Z,69.96
2018-05-14T18:56:34.782Z,70.10
2018-05-14T18:59:04.494Z,71.15
2018-05-14T19:01:35.014Z,71.95
2018-05-14T19:04:04.633Z,71.58
2018-05-14T19:06:34.278Z,71.41
2018-05-14T19:09:04.415Z,72.08
2018-05-14T19:11:39.965Z,73.89
2018-05-14T19:14:09.772Z,74.30
2018-05-14T19:16:46.113Z,75.23
2018-05-14T19:19:15.803Z,76.15
2018-05-14T19:21:45.447Z,76.36
2018-05-14T19:24:15.167Z,76.83
2018-05-14T19:26:45.027Z,77.06
2018-05-14T19:29:20.904Z,76.92
2018-05-14T19:31:51.222Z,77.63
2018-05-14T19:34:26.659Z,78.30
2018-05-14T19:36:57.677Z,79.61
2018-05-14T19:42:28.269Z,80.38
2018-05-14T19:44:57.907Z,80.25
2018-05-14T19:47:27.478Z,80.42
2018-05-14T19:49:57.084Z,80.80
2018-05-14T19:52:26.664Z,81.40
2018-05-14T19:54:57.424Z,82.17
2018-05-14T19:57:27.918Z,82.13
2018-05-14T19:59:57.923Z,82.21
2018-05-14T20:02:27.766Z,81.60
2018-05-14T20:04:59.027Z,81.19
2018-05-14T20:07:39.989Z,80.31
2018-05-14T20:10:09.653Z,80.25
2018-05-14T20:12:39.847Z,80.89
2018-05-14T20:15:10.923Z,81.37
2018-05-14T20:17:41.329Z,80.20
2018-05-14T20:20:16.856Z,80.04
2018-05-14T20:22:51.534Z,80.49
2018-05-14T20:25:23.067Z,80.67
2018-05-14T20:27:53.121Z,80.51
2018-05-14T20:30:23.807Z,80.71
2018-05-14T20:32:53.345Z,81.17
2018-05-14T20:35:23.063Z,81.51
2018-05-14T20:37:52.858Z,81.72
2018-05-14T20:40:23.469Z,82.17
2018-05-14T20:42:54.126Z,82.69
2018-05-14T20:45:23.958Z,82.97
2018-05-14T20:47:53.731Z,83.28
2018-05-14T20:50:23.542Z,83.51
2018-05-14T20:52:56.137Z,83.75
2018-05-14T20:55:26.932Z,84.07
2018-05-14T20:57:57.080Z,84.35
2018-05-14T21:00:28.602Z,84.80
2018-05-14T21:03:00.917Z,85.67
2018-05-14T21:05:30.670Z,86.22
2018-05-14T21:08:00.353Z,85.51
2018-05-14T21:10:29.929Z,85.80
2018-05-14T21:12:59.537Z,86.49
2018-05-14T21:15:33.028Z,86.04
2018-05-14T21:18:05.381Z,86.00
2018-05-14T21:20:35.358Z,86.48
2018-05-14T21:23:05.780Z,86.47
2018-05-14T21:25:35.749Z,85.88
2018-05-14T21:28:07.000Z,85.56
2018-05-14T21:30:40.539Z,86.10
2018-05-14T21:33:10.148Z,86.22
2018-05-14T21:35:40.135Z,86.56
2018-05-14T21:38:10.614Z,86.26
2018-05-14T21:40:46.915Z,86.18
2018-05-14T21:43:20.168Z,86.45
2018-05-14T21:45:50.793Z,87.42
2018-05-14T21:48:22.236Z,87.92
2018-05-14T21:50:52.777Z,88.49
2018-05-14T21:53:26.236Z,88.38
2018-05-14T21:56:01.854Z,88.61
2018-05-14T21:58:38.940Z,88.17
2018-05-14T22:01:10.043Z,88.92
2018-05-14T22:03:40.042Z,89.02
2018-05-14T22:06:15.620Z,89.30
2018-05-14T22:08:45.983Z,89.67
2018-05-14T22:11:17.504Z,89.60
2018-05-14T22:13:52.955Z,88.92
2018-05-14T22:16:27.339Z,87.95
2018-05-14T22:19:05.121Z,87.99
2018-05-14T22:21:35.345Z,87.59
2018-05-14T22:24:04.988Z,87.99
2018-05-14T22:26:35.150Z,88.08
2018-05-14T22:29:13.767Z,88.29
2018-05-14T22:31:44.647Z,88.05
2018-05-14T22:34:14.722Z,86.82
2018-05-14T22:36:46.167Z,85.42
2018-05-14T22:39:16.033Z,84.71
2018-05-14T22:41:45.758Z,84.21
2018-05-14T22:44:15.543Z,83.50
2018-05-14T22:46:45.686Z,83.31
2018-05-14T22:49:16.302Z,83.61
2018-05-14T22:51:45.889Z,83.93
2018-05-14T22:57:13.611Z,83.46
2018-05-14T22:59:43.494Z,83.76
2018-05-14T23:02:34.684Z,84.08
2018-05-14T23:05:04.465Z,84.77
2018-05-14T23:07:34.309Z,85.62
2018-05-14T23:10:04.473Z,86.51
2018-05-14T23:12:34.063Z,87.93
2018-05-14T23:15:03.741Z,87.99
2018-05-14T23:17:33.487Z,87.80
2018-05-14T23:20:04.137Z,87.18
2018-05-14T23:22:42.262Z,87.19
2018-05-14T23:25:11.972Z,87.04
2018-05-14T23:27:48.082Z,87.35
2018-05-14T23:30:24.421Z,87.56
2018-05-14T23:32:59.194Z,88.12
2018-05-14T23:35:33.479Z,88.33
2018-05-14T23:38:04.527Z,88.96
2018-05-14T23:40:35.816Z,89.26
2018-05-14T23:43:06.542Z,89.11
2018-05-14T23:45:36.923Z,89.09
2018-05-14T23:48:07.557Z,89.35
2018-05-14T23:50:39.010Z,89.90
2018-05-14T23:53:12.041Z,89.65
2018-05-14T23:55:42.745Z,89.65
2018-05-14T23:58:14.013Z,89.53
